createdAt,value
2018-03-27T00:02:11.018Z,9.80
2018-03-27T00:04:38.511Z,10.75
2018-03-27T00:07:06.013Z,11.80
2018-03-27T00:09:33.501Z,11.95
2018-03-27T00:12:01.914Z,10.40
2018-03-27T00:14:29.509Z,10.40
2018-03-27T00:16:57.965Z,10.88
2018-03-27T00:19:26.480Z,9.95
2018-03-27T00:21:54.028Z,11.82
2018-03-27T00:24:21.478Z,11.55
2018-03-27T00:27:00.634Z,12.90
2018-03-27T00:29:39.928Z,11.60
2018-03-27T00:32:19.088Z,12.80
2018-03-27T00:34:58.339Z,12.32
2018-03-27T00:37:37.539Z,12.40
2018-03-27T00:40:16.812Z,13.85
2018-03-27T00:42:52.864Z,14.05
2018-03-27T00:45:20.364Z,13.45
2018-03-27T00:47:47.853Z,12.95
2018-03-27T00:50:15.413Z,10.50
2018-03-27T00:52:43.902Z,10.23
2018-03-27T00:55:11.357Z,10.00
2018-03-27T00:57:39.757Z,11.90
2018-03-27T01:00:07.217Z,11.80
2018-03-27T01:02:34.701Z,13.45
2018-03-27T01:05:07.733Z,10.95
2018-03-27T01:07:35.285Z,12.23
2018-03-27T01:10:02.730Z,9.63
2018-03-27T01:12:30.215Z,10.57
2018-03-27T01:14:57.673Z,10.25
2018-03-27T01:17:25.158Z,8.65
2018-03-27T01:19:52.601Z,7.50
2018-03-27T01:22:21.055Z,10.93
2018-03-27T01:24:48.605Z,8.65
2018-03-27T01:27:16.089Z,10.50
2018-03-27T01:29:43.534Z,9.98
2018-03-27T01:32:12.043Z,11.02
2018-03-27T01:34:39.493Z,8.68
2018-03-27T01:37:06.940Z,10.13
2018-03-27T01:39:34.420Z,13.10
2018-03-27T01:42:01.870Z,8.38
2018-03-27T01:44:29.357Z,8.88
2018-03-27T01:46:57.742Z,8.82
2018-03-27T01:49:25.239Z,9.52
2018-03-27T01:51:52.697Z,9.32
2018-03-27T01:54:20.205Z,10.07
2018-03-27T01:56:48.593Z,10.52
2018-03-27T01:59:16.078Z,8.00
2018-03-27T02:01:43.529Z,9.07
2018-03-27T02:04:11.011Z,11.00
2018-03-27T02:06:38.464Z,9.18
2018-03-27T02:09:05.944Z,10.57
2018-03-27T02:11:39.164Z,8.80
2018-03-27T02:14:12.310Z,10.82
2018-03-27T02:16:45.273Z,9.65
2018-03-27T02:19:18.381Z,11.85
2018-03-27T02:21:45.281Z,11.93
2018-03-27T02:24:15.622Z,11.02
2018-03-27T02:26:43.078Z,10.82
2018-03-27T02:29:10.539Z,11.63
2018-03-27T02:31:39.131Z,10.98
2018-03-27T02:34:06.664Z,13.90
2018-03-27T02:36:34.228Z,10.80
2018-03-27T02:39:01.707Z,11.57
2018-03-27T02:41:29.194Z,10.55
2018-03-27T02:43:56.713Z,12.40
2018-03-27T02:46:24.197Z,11.38
2018-03-27T02:48:51.653Z,12.93
2018-03-27T02:51:19.151Z,11.82
2018-03-27T02:53:46.605Z,12.80
2018-03-27T02:56:14.087Z,11.23
2018-03-27T02:58:41.543Z,13.40
2018-03-27T03:01:10.958Z,11.65
2018-03-27T03:03:39.413Z,11.50
2018-03-27T03:06:07.820Z,13.00
2018-03-27T03:08:35.279Z,12.40
2018-03-27T03:11:02.765Z,12.25
2018-03-27T03:13:30.217Z,12.02
2018-03-27T03:15:58.668Z,11.18
2018-03-27T03:18:26.117Z,11.38
2018-03-27T03:20:53.796Z,10.13
2018-03-27T03:23:21.244Z,11.20
2018-03-27T03:25:48.710Z,9.85
2018-03-27T03:28:16.208Z,8.27
2018-03-27T03:30:43.662Z,7.40
2018-03-27T03:33:11.148Z,9.70
2018-03-27T03:35:39.559Z,8.90
2018-03-27T03:38:07.038Z,8.10
2018-03-27T03:40:34.496Z,6.90
2018-03-27T03:43:01.982Z,6.87
2018-03-27T03:45:29.442Z,7.07
2018-03-27T03:47:56.942Z,7.80
2018-03-27T03:50:24.393Z,8.07
2018-03-27T03:52:51.869Z,8.10
2018-03-27T03:55:19.318Z,9.55
2018-03-27T03:57:46.879Z,9.10
2018-03-27T04:00:14.338Z,10.27
2018-03-27T04:02:41.909Z,9.60
2018-03-27T04:05:09.357Z,10.52
2018-03-27T04:07:36.836Z,7.72
2018-03-27T04:10:04.280Z,7.25
2018-03-27T04:12:35.012Z,7.62
2018-03-27T04:15:02.548Z,8.70
2018-03-27T04:17:30.215Z,7.72
2018-03-27T04:19:57.693Z,8.63
2018-03-27T04:22:25.136Z,8.88
2018-03-27T04:24:52.613Z,8.93
2018-03-27T04:27:20.145Z,8.70
2018-03-27T04:29:47.673Z,10.93
2018-03-27T04:32:15.161Z,9.48
2018-03-27T04:34:42.640Z,10.45
2018-03-27T04:37:10.178Z,11.35
2018-03-27T04:39:37.657Z,10.98
2018-03-27T04:42:05.180Z,11.23
2018-03-27T04:44:32.662Z,10.55
2018-03-27T04:47:01.108Z,11.63
2018-03-27T04:49:28.710Z,10.50
2018-03-27T04:51:56.185Z,10.75
2018-03-27T04:54:23.689Z,10.85
2018-03-27T04:56:51.158Z,10.60
2018-03-27T04:59:18.640Z,11.70
2018-03-27T05:01:46.080Z,10.30
2018-03-27T05:04:13.558Z,12.00
2018-03-27T05:06:41.014Z,10.30
2018-03-27T05:09:08.490Z,9.82
2018-03-27T05:11:35.977Z,11.05
2018-03-27T05:14:03.433Z,10.80
2018-03-27T05:16:31.053Z,10.95
2018-03-27T05:18:58.567Z,11.48
2018-03-27T05:21:27.096Z,10.98
2018-03-27T05:26:26.256Z,10.80
2018-03-27T05:28:53.762Z,10.15
2018-03-27T05:31:21.292Z,10.73
2018-03-27T05:33:49.769Z,11.10
2018-03-27T05:36:18.258Z,11.48
2018-03-27T05:38:45.713Z,12.50
2018-03-27T05:41:13.269Z,11.82
2018-03-27T05:43:41.744Z,11.05
2018-03-27T05:46:09.233Z,12.77
2018-03-27T05:48:36.710Z,12.95
2018-03-27T05:51:04.225Z,10.73
2018-03-27T05:53:32.585Z,11.23
2018-03-27T05:56:00.128Z,12.10
2018-03-27T05:58:27.539Z,12.95
2018-03-27T06:00:55.081Z,13.90
2018-03-27T06:03:22.533Z,12.25
2018-03-27T06:05:50.025Z,16.27
2018-03-27T06:08:17.489Z,15.02
2018-03-27T06:10:45.113Z,14.18
2018-03-27T06:13:12.570Z,13.95
2018-03-27T06:15:41.014Z,15.43
2018-03-27T06:18:08.491Z,17.40
2018-03-27T06:20:35.940Z,14.95
2018-03-27T06:23:04.437Z,13.35
2018-03-27T06:25:31.900Z,15.18
2018-03-27T06:27:59.373Z,15.73
2018-03-27T06:30:26.828Z,15.35
2018-03-27T06:32:54.327Z,15.05
2018-03-27T06:35:21.785Z,14.30
2018-03-27T06:37:49.260Z,14.85
2018-03-27T06:40:16.712Z,14.68
2018-03-27T06:42:44.205Z,17.05
2018-03-27T06:45:11.660Z,15.50
2018-03-27T06:47:39.145Z,17.45
2018-03-27T06:50:06.617Z,16.52
2018-03-27T06:52:34.101Z,17.12
2018-03-27T06:55:01.563Z,17.60
2018-03-27T06:57:29.061Z,18.02
2018-03-27T06:59:56.517Z,18.27
2018-03-27T07:02:26.021Z,15.30
2018-03-27T07:04:53.492Z,16.62
2018-03-27T07:07:21.016Z,16.02
2018-03-27T07:09:48.502Z,14.05
2018-03-27T07:12:15.956Z,14.20
2018-03-27T07:14:43.501Z,14.73
2018-03-27T07:17:11.056Z,13.52
2018-03-27T07:19:38.556Z,12.95
2018-03-27T07:22:06.013Z,13.20
2018-03-27T07:24:33.502Z,13.05
2018-03-27T07:27:01.021Z,12.95
2018-03-27T07:29:28.492Z,16.33
2018-03-27T07:31:56.902Z,14.63
2018-03-27T07:34:24.394Z,16.12
2018-03-27T07:36:51.856Z,15.45
2018-03-27T07:39:19.348Z,16.98
2018-03-27T07:41:46.841Z,16.62
2018-03-27T07:44:14.418Z,18.00
2018-03-27T07:46:41.885Z,16.35
2018-03-27T07:49:09.376Z,18.90
2018-03-27T07:51:36.836Z,19.87
2018-03-27T07:54:04.293Z,17.08
2018-03-27T07:56:31.853Z,19.85
2018-03-27T07:58:59.313Z,18.83
2018-03-27T08:01:27.826Z,17.67
2018-03-27T08:03:55.283Z,17.83
2018-03-27T08:06:22.765Z,18.73
2018-03-27T08:08:50.297Z,20.70
2018-03-27T08:11:18.799Z,16.58
2018-03-27T08:13:47.160Z,18.15
2018-03-27T08:16:14.660Z,17.62
2018-03-27T08:18:42.117Z,15.20
2018-03-27T08:21:09.602Z,15.52
2018-03-27T08:23:37.052Z,15.38
2018-03-27T08:26:05.431Z,15.57
2018-03-27T08:28:33.820Z,14.05
2018-03-27T08:31:01.385Z,13.77
2018-03-27T08:33:28.823Z,14.02
2018-03-27T08:35:56.300Z,14.35
2018-03-27T08:38:25.701Z,14.73
2018-03-27T08:40:53.192Z,12.00
2018-03-27T08:43:20.652Z,12.85
2018-03-27T08:45:55.424Z,15.25
2018-03-27T08:48:22.888Z,15.93
2018-03-27T08:50:50.337Z,13.70
2018-03-27T08:53:21.685Z,16.73
2018-03-27T08:55:49.162Z,18.60
2018-03-27T08:58:16.649Z,16.17
2018-03-27T09:00:44.350Z,16.12
2018-03-27T09:03:11.814Z,17.20
2018-03-27T09:05:39.261Z,18.90
2018-03-27T09:08:06.753Z,15.15
2018-03-27T09:10:34.217Z,15.55
2018-03-27T09:13:01.701Z,13.73
2018-03-27T09:15:30.153Z,15.05
2018-03-27T09:17:57.642Z,14.18
2018-03-27T09:20:25.097Z,13.38
2018-03-27T09:22:52.602Z,13.40
2018-03-27T09:25:20.084Z,12.70
2018-03-27T09:27:47.585Z,12.23
2018-03-27T09:30:15.046Z,14.02
2018-03-27T09:32:42.537Z,12.77
2018-03-27T09:35:10.001Z,11.85
2018-03-27T09:37:40.875Z,13.70
2018-03-27T09:40:09.309Z,11.12
2018-03-27T09:42:36.801Z,12.57
2018-03-27T09:45:04.301Z,10.20
2018-03-27T09:47:31.764Z,10.80
2018-03-27T09:49:59.269Z,10.52
2018-03-27T09:52:26.725Z,10.68
2018-03-27T09:54:54.292Z,11.73
2018-03-27T09:57:21.749Z,12.00
2018-03-27T09:59:49.237Z,11.23
2018-03-27T10:02:17.319Z,10.73
2018-03-27T10:04:45.037Z,11.90
2018-03-27T10:07:12.498Z,10.65
2018-03-27T10:09:40.005Z,11.98
2018-03-27T10:12:07.463Z,9.10
2018-03-27T10:14:34.966Z,10.07
2018-03-27T10:17:02.536Z,9.70
2018-03-27T10:19:30.031Z,13.68
2018-03-27T10:21:57.497Z,14.38
2018-03-27T10:24:24.999Z,11.25
2018-03-27T10:26:52.457Z,12.60
2018-03-27T10:29:19.989Z,10.70
2018-03-27T10:31:47.450Z,10.33
2018-03-27T10:34:15.836Z,9.33
2018-03-27T10:36:43.345Z,11.50
2018-03-27T10:39:10.845Z,11.70
2018-03-27T10:41:38.353Z,10.40
2018-03-27T10:44:05.825Z,10.13
2018-03-27T10:46:33.317Z,10.57
2018-03-27T10:49:00.849Z,10.23
2018-03-27T10:51:28.406Z,11.70
2018-03-27T10:53:55.861Z,11.20
2018-03-27T10:56:24.349Z,10.47
2018-03-27T10:58:51.797Z,10.63
2018-03-27T11:01:19.272Z,9.73
2018-03-27T11:03:46.781Z,11.13
2018-03-27T11:06:14.213Z,12.60
2018-03-27T11:08:41.845Z,12.20
2018-03-27T11:11:09.405Z,12.70
2018-03-27T11:13:36.880Z,12.90
2018-03-27T11:16:04.381Z,12.20
2018-03-27T11:18:33.789Z,12.20
2018-03-27T11:21:01.276Z,13.35
2018-03-27T11:23:29.713Z,11.88
2018-03-27T11:25:58.126Z,12.15
2018-03-27T11:28:25.582Z,13.05
2018-03-27T11:30:53.146Z,12.63
2018-03-27T11:33:20.651Z,12.85
2018-03-27T11:35:48.113Z,14.13
2018-03-27T11:38:16.569Z,13.77
2018-03-27T11:40:44.029Z,12.68
2018-03-27T11:43:11.558Z,13.35
2018-03-27T11:45:39.016Z,14.70
2018-03-27T11:48:06.505Z,12.73
2018-03-27T11:50:33.975Z,13.50
2018-03-27T11:53:01.478Z,14.00
2018-03-27T11:55:29.040Z,14.57
2018-03-27T11:57:56.537Z,11.15
2018-03-27T12:00:25.021Z,15.68
2018-03-27T12:02:53.473Z,14.30
2018-03-27T12:05:20.940Z,14.65
2018-03-27T12:07:48.579Z,14.03
2018-03-27T12:10:16.042Z,13.53
2018-03-27T12:12:43.526Z,14.07
2018-03-27T12:15:10.985Z,13.80
2018-03-27T12:17:38.493Z,13.67
2018-03-27T12:20:05.982Z,13.17
2018-03-27T12:22:34.413Z,11.43
2018-03-27T12:25:03.858Z,12.90
2018-03-27T12:27:31.328Z,12.70
2018-03-27T12:29:58.825Z,11.93
2018-03-27T12:32:26.286Z,12.00
2018-03-27T12:34:53.790Z,11.80
2018-03-27T12:37:21.266Z,11.43
2018-03-27T12:39:48.758Z,12.23
2018-03-27T12:42:16.226Z,12.40
2018-03-27T12:44:43.731Z,12.50
2018-03-27T12:47:11.194Z,11.30
2018-03-27T12:49:38.686Z,11.47
2018-03-27T12:52:06.137Z,11.50
2018-03-27T12:54:34.552Z,14.27
2018-03-27T12:57:03.030Z,12.70
2018-03-27T12:59:30.529Z,11.23
2018-03-27T13:01:58.005Z,10.27
2018-03-27T13:04:25.506Z,12.77
2018-03-27T13:06:52.970Z,10.83
2018-03-27T13:09:20.478Z,13.90
2018-03-27T13:11:47.995Z,13.70
2018-03-27T13:14:16.358Z,13.97
2018-03-27T13:16:43.839Z,13.50
2018-03-27T13:19:11.378Z,16.63
2018-03-27T13:21:38.862Z,12.43
2018-03-27T13:24:06.321Z,12.57
2018-03-27T13:26:33.813Z,13.50
2018-03-27T13:29:01.283Z,13.90
2018-03-27T13:31:29.702Z,13.40
2018-03-27T13:33:57.167Z,12.40
2018-03-27T13:36:25.626Z,12.57
2018-03-27T13:38:53.105Z,12.50
2018-03-27T13:41:20.583Z,13.43
2018-03-27T13:43:48.057Z,11.60
2018-03-27T13:46:15.619Z,12.60
2018-03-27T13:48:44.021Z,11.43
2018-03-27T13:51:11.520Z,13.50
2018-03-27T13:53:38.985Z,13.50
2018-03-27T13:56:07.441Z,13.13
2018-03-27T13:58:34.902Z,13.30
2018-03-27T14:01:02.425Z,11.50
2018-03-27T14:03:29.878Z,14.63
2018-03-27T14:05:57.369Z,12.30
2018-03-27T14:08:24.821Z,13.83
2018-03-27T14:10:52.274Z,13.60
2018-03-27T14:13:19.824Z,15.10
2018-03-27T14:15:47.280Z,15.33
2018-03-27T14:18:15.758Z,14.83
2018-03-27T14:20:43.210Z,13.13
2018-03-27T14:23:10.701Z,14.23
2018-03-27T14:25:38.236Z,14.67
2018-03-27T14:28:05.788Z,15.03
2018-03-27T14:30:33.279Z,13.47
2018-03-27T14:33:00.737Z,12.80
2018-03-27T14:35:28.192Z,14.40
2018-03-27T14:37:55.678Z,12.67
2018-03-27T14:40:24.006Z,14.80
2018-03-27T14:42:51.850Z,13.47
2018-03-27T14:45:19.292Z,13.57
2018-03-27T14:47:46.790Z,13.50
2018-03-27T14:50:14.341Z,12.70
2018-03-27T14:52:41.830Z,15.03
2018-03-27T14:55:09.277Z,12.83
2018-03-27T14:57:38.699Z,14.60
2018-03-27T15:00:06.186Z,14.20
2018-03-27T15:02:33.697Z,14.60
2018-03-27T15:05:01.146Z,15.07
2018-03-27T15:07:28.601Z,13.77
2018-03-27T15:09:56.831Z,13.87
2018-03-27T15:12:25.220Z,14.47
2018-03-27T15:14:52.705Z,14.20
2018-03-27T15:17:21.226Z,13.57
2018-03-27T15:19:48.759Z,12.93
2018-03-27T15:22:16.217Z,13.00
2018-03-27T15:24:43.798Z,14.73
2018-03-27T15:27:11.287Z,12.32
2018-03-27T15:29:38.782Z,14.73
2018-03-27T15:32:06.344Z,13.95
2018-03-27T15:34:33.844Z,15.07
2018-03-27T15:37:02.225Z,13.55
2018-03-27T15:39:29.733Z,16.60
2018-03-27T15:41:58.173Z,15.13
2018-03-27T15:44:25.714Z,17.45
2018-03-27T15:46:53.194Z,14.70
2018-03-27T15:49:21.684Z,16.02
2018-03-27T15:51:50.131Z,14.68
2018-03-27T15:54:17.638Z,16.33
2018-03-27T15:56:45.155Z,14.45
2018-03-27T15:59:12.661Z,14.07
2018-03-27T16:01:40.367Z,15.70
2018-03-27T16:04:07.869Z,16.30
2018-03-27T16:06:35.366Z,16.05
2018-03-27T16:09:02.870Z,17.40
2018-03-27T16:11:30.375Z,15.40
2018-03-27T16:13:57.883Z,17.48
2018-03-27T16:16:25.377Z,17.58
2018-03-27T16:18:52.840Z,17.65
2018-03-27T16:21:20.375Z,18.15
2018-03-27T16:23:47.855Z,16.55
2018-03-27T16:26:15.344Z,16.02
2018-03-27T16:28:42.813Z,19.25
2018-03-27T16:31:10.317Z,19.55
2018-03-27T16:33:38.794Z,17.83
2018-03-27T16:36:06.290Z,16.85
2018-03-27T16:38:33.754Z,16.45
2018-03-27T16:41:01.294Z,17.65
2018-03-27T16:43:28.772Z,17.95
2018-03-27T16:45:56.542Z,17.40
2018-03-27T16:48:24.051Z,18.17
2018-03-27T16:50:51.517Z,17.95
2018-03-27T16:53:19.013Z,20.10
2018-03-27T16:55:46.470Z,18.80
2018-03-27T16:58:13.969Z,20.58
2018-03-27T17:00:43.365Z,20.75
2018-03-27T17:03:10.980Z,19.87
2018-03-27T17:05:38.440Z,18.75
2018-03-27T17:08:06.936Z,21.50
2018-03-27T17:10:36.347Z,21.00
2018-03-27T17:13:03.852Z,19.80
2018-03-27T17:15:31.308Z,21.65
2018-03-27T17:17:59.004Z,19.65
2018-03-27T17:20:26.462Z,20.15
2018-03-27T17:22:55.866Z,18.90
2018-03-27T17:25:23.355Z,20.27
2018-03-27T17:27:50.856Z,18.48
2018-03-27T17:30:18.556Z,20.83
2018-03-27T17:32:46.091Z,21.08
2018-03-27T17:35:13.560Z,17.75
2018-03-27T17:37:41.069Z,19.10
2018-03-27T17:40:08.530Z,21.50
2018-03-27T17:42:36.034Z,19.77
2018-03-27T17:45:03.492Z,20.80
2018-03-27T17:47:31.012Z,21.87
2018-03-27T17:49:59.400Z,20.17
2018-03-27T17:52:26.856Z,22.08
2018-03-27T17:54:54.333Z,20.73
2018-03-27T17:57:21.833Z,18.85
2018-03-27T17:59:49.337Z,17.50
2018-03-27T18:02:16.785Z,19.08
2018-03-27T18:04:45.384Z,18.10
2018-03-27T18:07:12.832Z,18.75
2018-03-27T18:09:40.317Z,20.15
2018-03-27T18:12:07.777Z,19.50
2018-03-27T18:14:35.325Z,18.65
2018-03-27T18:17:02.784Z,18.12
2018-03-27T18:19:30.289Z,18.62
2018-03-27T18:21:57.747Z,17.70
2018-03-27T18:24:25.257Z,21.15
2018-03-27T18:26:52.717Z,18.70
2018-03-27T18:29:20.196Z,18.67
2018-03-27T18:31:47.661Z,20.17
2018-03-27T18:34:15.162Z,20.23
2018-03-27T18:36:42.664Z,21.90
2018-03-27T18:39:11.117Z,20.67
2018-03-27T18:41:38.607Z,19.30
2018-03-27T18:44:06.069Z,20.30
2018-03-27T18:46:33.624Z,18.80
2018-03-27T18:49:01.090Z,18.62
2018-03-27T18:51:28.645Z,18.90
2018-03-27T18:53:56.113Z,19.52
2018-03-27T18:56:23.607Z,19.23
2018-03-27T18:58:51.113Z,19.33
2018-03-27T19:01:18.626Z,18.55
2018-03-27T19:03:46.086Z,19.40
2018-03-27T19:06:13.577Z,19.75
2018-03-27T19:08:41.056Z,19.67
2018-03-27T19:11:08.633Z,18.30
2018-03-27T19:13:36.088Z,19.02
2018-03-27T19:16:03.573Z,20.08
2018-03-27T19:18:31.180Z,21.75
2018-03-27T19:20:59.689Z,20.37
2018-03-27T19:23:27.171Z,19.50
2018-03-27T19:25:54.657Z,18.00
2018-03-27T19:28:22.105Z,20.42
2018-03-27T19:30:49.698Z,19.30
2018-03-27T19:33:17.162Z,21.27
2018-03-27T19:35:44.649Z,19.42
2018-03-27T19:38:12.163Z,18.35
2018-03-27T19:40:39.693Z,17.75
2018-03-27T19:43:07.172Z,16.23
2018-03-27T19:45:34.637Z,16.08
2018-03-27T19:48:02.134Z,16.27
2018-03-27T19:50:29.592Z,19.08
2018-03-27T19:52:57.066Z,18.33
2018-03-27T19:55:24.530Z,19.02
2018-03-27T19:57:52.029Z,19.17
2018-03-27T20:00:19.482Z,20.25
2018-03-27T20:02:46.969Z,20.77
2018-03-27T20:05:14.443Z,19.30
2018-03-27T20:07:41.971Z,18.52
2018-03-27T20:10:09.424Z,18.70
2018-03-27T20:12:36.913Z,19.15
2018-03-27T20:15:04.402Z,18.85
2018-03-27T20:17:31.888Z,19.10
2018-03-27T20:19:59.370Z,18.65
2018-03-27T20:22:26.895Z,20.50
2018-03-27T20:24:54.353Z,18.83
2018-03-27T20:27:21.852Z,17.15
2018-03-27T20:29:49.424Z,17.80
2018-03-27T20:32:16.937Z,17.62
2018-03-27T20:34:44.489Z,17.42
2018-03-27T20:37:12.994Z,19.12
2018-03-27T20:39:40.569Z,16.02
2018-03-27T20:42:08.022Z,17.00
2018-03-27T20:44:35.559Z,13.38
2018-03-27T20:47:03.280Z,14.27
2018-03-27T20:49:30.849Z,15.15
2018-03-27T20:52:00.297Z,15.93
2018-03-27T20:54:29.292Z,14.68
2018-03-27T20:56:56.764Z,15.35
2018-03-27T20:59:24.249Z,13.80
2018-03-27T21:01:51.728Z,15.10
2018-03-27T21:04:19.826Z,13.57
2018-03-27T21:06:47.383Z,15.15
2018-03-27T21:09:14.885Z,14.10
2018-03-27T21:11:42.341Z,15.05
2018-03-27T21:14:09.858Z,15.95
2018-03-27T21:16:40.098Z,12.90
2018-03-27T21:19:07.568Z,17.83
2018-03-27T21:21:35.065Z,14.55
2018-03-27T21:24:02.514Z,14.73
2018-03-27T21:26:30.000Z,14.63
2018-03-27T21:28:57.461Z,15.25
2018-03-27T21:31:24.981Z,15.48
2018-03-27T21:33:52.440Z,15.25
2018-03-27T21:36:19.934Z,14.38
2018-03-27T21:38:48.380Z,14.65
2018-03-27T21:41:16.800Z,13.65
2018-03-27T21:43:44.367Z,13.35
2018-03-27T21:46:11.881Z,15.48
2018-03-27T21:48:39.346Z,14.05
2018-03-27T21:51:06.828Z,13.60
2018-03-27T21:53:34.989Z,12.85
2018-03-27T21:56:02.470Z,14.45
2018-03-27T21:58:31.759Z,13.93
2018-03-27T22:00:59.276Z,13.82
2018-03-27T22:03:41.614Z,13.25
2018-03-27T22:06:09.116Z,14.25
2018-03-27T22:08:36.575Z,13.75
2018-03-27T22:11:05.066Z,14.02
2018-03-27T22:13:32.528Z,15.27
2018-03-27T22:16:00.205Z,14.13
2018-03-27T22:18:27.683Z,16.08
2018-03-27T22:20:55.240Z,15.10
2018-03-27T22:23:22.752Z,13.73
2018-03-27T22:25:50.204Z,13.95
2018-03-27T22:28:17.702Z,14.55
2018-03-27T22:30:47.148Z,13.77
2018-03-27T22:33:14.807Z,15.00
2018-03-27T22:35:42.308Z,14.70
2018-03-27T22:38:10.000Z,15.57
2018-03-27T22:40:37.500Z,15.63
2018-03-27T22:43:06.908Z,16.20
2018-03-27T22:45:34.365Z,17.50
2018-03-27T22:48:01.849Z,15.98
2018-03-27T22:50:29.446Z,14.60
2018-03-27T22:52:57.051Z,13.82
2018-03-27T22:55:24.552Z,15.18
2018-03-27T22:57:52.097Z,17.10
2018-03-27T23:00:21.477Z,13.50
2018-03-27T23:02:48.986Z,14.63
2018-03-27T23:05:16.662Z,15.48
2018-03-27T23:07:44.194Z,15.93
2018-03-27T23:10:11.684Z,16.67
2018-03-27T23:12:39.236Z,16.65
2018-03-27T23:15:06.794Z,16.65
2018-03-27T23:17:34.242Z,16.05
2018-03-27T23:20:01.790Z,16.33
2018-03-27T23:22:31.379Z,16.08
2018-03-27T23:24:58.863Z,14.95
2018-03-27T23:27:26.312Z,15.52
2018-03-27T23:29:53.844Z,15.60
2018-03-27T23:32:21.312Z,15.15
2018-03-27T23:34:48.809Z,14.45
2018-03-27T23:37:16.258Z,15.68
2018-03-27T23:39:46.017Z,14.70
2018-03-27T23:42:13.483Z,16.23
2018-03-27T23:44:40.973Z,14.70
2018-03-27T23:47:08.432Z,15.70
2018-03-27T23:49:35.921Z,13.73
2018-03-27T23:52:03.383Z,15.45
2018-03-27T23:54:30.908Z,16.37
2018-03-27T23:56:58.329Z,16.12
2018-03-27T23:59:25.808Z,16.08
